createdAt,value
2022-09-15T00:00:29.241Z,99914.03
2022-09-15T00:02:56.227Z,99911.31
2022-09-15T00:05:23.067Z,99912.16
2022-09-15T00:07:49.704Z,99910.28
2022-09-15T00:10:17.428Z,99914.03
2022-09-15T00:12:44.128Z,99915.28
2022-09-15T00:15:14.698Z,99915.03
2022-09-15T00:17:43.170Z,99908.81
2022-09-15T00:20:10.981Z,99919.84
2022-09-15T00:22:38.116Z,99906.94
2022-09-15T00:25:05.635Z,99897.19
2022-09-15T00:27:33.560Z,99902.38
2022-09-15T00:30:00.421Z,99906.13
2022-09-15T00:32:27.406Z,99907.16
2022-09-15T00:34:53.984Z,99914.41
2022-09-15T00:37:21.037Z,99913.16
2022-09-15T00:39:48.496Z,99908.19
2022-09-15T00:42:20.983Z,99916.69
2022-09-15T00:44:55.031Z,99915.63
2022-09-15T00:47:27.290Z,99900.28
2022-09-15T00:50:00.121Z,99914.41
2022-09-15T00:52:51.916Z,99912.13
2022-09-15T00:55:24.183Z,99905.06
2022-09-15T00:58:04.157Z,99904.03
2022-09-15T01:00:30.860Z,99909.44
2022-09-15T01:02:57.831Z,99913.00
2022-09-15T01:05:30.107Z,99912.72
2022-09-15T01:08:02.042Z,99916.69
2022-09-15T01:10:31.709Z,99912.72
2022-09-15T01:13:05.597Z,99919.59
2022-09-15T01:16:11.035Z,99916.03
2022-09-15T01:18:49.458Z,99917.72
2022-09-15T01:21:44.939Z,99922.28
2022-09-15T01:24:37.246Z,99923.94
2022-09-15T01:27:37.792Z,99913.97
2022-09-15T01:30:10.018Z,99922.47
2022-09-15T01:33:06.916Z,99914.38
2022-09-15T01:35:33.534Z,99915.63
2022-09-15T01:38:11.362Z,99910.63
2022-09-15T01:40:58.620Z,99913.53
2022-09-15T01:43:27.924Z,99916.22
2022-09-15T01:45:54.633Z,99914.97
2022-09-15T01:48:25.409Z,99924.53
2022-09-15T01:50:56.720Z,99917.25
2022-09-15T01:53:24.181Z,99920.13
2022-09-15T01:56:00.041Z,99911.22
2022-09-15T01:58:27.310Z,99915.59
2022-09-15T02:01:00.694Z,99916.22
2022-09-15T02:03:39.876Z,99912.47
2022-09-15T02:06:36.062Z,99913.53
2022-09-15T02:09:35.754Z,99907.28
2022-09-15T02:12:19.514Z,99906.66
2022-09-15T02:15:05.468Z,99908.94
2022-09-15T02:17:36.175Z,99909.78
2022-09-15T02:20:25.647Z,99914.16
2022-09-15T02:22:57.220Z,99908.13
2022-09-15T02:25:33.955Z,99904.19
2022-09-15T02:28:05.671Z,99904.59
2022-09-15T02:30:36.198Z,99903.94
2022-09-15T02:33:06.829Z,99909.34
2022-09-15T02:35:36.096Z,99907.69
2022-09-15T02:38:05.349Z,99911.22
2022-09-15T02:40:32.607Z,99914.13
2022-09-15T02:43:01.893Z,99909.16
2022-09-15T02:45:31.098Z,99913.09
2022-09-15T02:47:58.807Z,99917.25
2022-09-15T02:50:26.727Z,99911.41
2022-09-15T02:52:54.508Z,99921.16
2022-09-15T02:55:21.463Z,99918.47
2022-09-15T02:57:48.019Z,99916.81
2022-09-15T03:00:20.079Z,99921.16
2022-09-15T03:02:52.163Z,99922.63
2022-09-15T03:05:22.242Z,99917.22
2022-09-15T03:07:49.229Z,99912.03
2022-09-15T03:10:16.395Z,99911.41
2022-09-15T03:12:49.320Z,99915.97
2022-09-15T03:15:19.693Z,99913.06
2022-09-15T03:17:47.674Z,99914.13
2022-09-15T03:20:17.175Z,99904.97
2022-09-15T03:22:44.098Z,99909.75
2022-09-15T03:25:11.296Z,99913.28
2022-09-15T03:27:38.566Z,99915.31
2022-09-15T03:30:06.563Z,99908.28
2022-09-15T03:32:33.211Z,99913.66
2022-09-15T03:34:59.987Z,99915.16
2022-09-15T03:37:26.976Z,99908.47
2022-09-15T03:39:53.649Z,99915.53
2022-09-15T03:42:20.764Z,99913.06
2022-09-15T03:44:47.455Z,99909.09
2022-09-15T03:47:14.052Z,99903.91
2022-09-15T03:49:40.637Z,99923.22
2022-09-15T03:52:07.198Z,99910.56
2022-09-15T03:54:35.013Z,99911.38
2022-09-15T03:57:01.713Z,99914.50
2022-09-15T03:59:28.266Z,99907.03
2022-09-15T04:01:54.923Z,99914.69
2022-09-15T04:04:21.561Z,99914.69
2022-09-15T04:06:48.131Z,99918.22
2022-09-15T04:09:15.184Z,99922.38
2022-09-15T04:11:42.785Z,99909.94
2022-09-15T04:14:09.393Z,99911.59
2022-09-15T04:16:36.163Z,99920.09
2022-09-15T04:19:02.859Z,99910.56
2022-09-15T04:21:31.707Z,99919.28
2022-09-15T04:23:58.677Z,99918.22
2022-09-15T04:26:30.090Z,99924.44
2022-09-15T04:29:01.587Z,99926.94
2022-09-15T04:31:30.456Z,99916.56
2022-09-15T04:33:58.237Z,99918.03
2022-09-15T04:36:28.277Z,99918.03
2022-09-15T04:38:55.394Z,99919.28
2022-09-15T04:41:22.619Z,99921.34
2022-09-15T04:43:49.522Z,99924.25
2022-09-15T04:46:16.841Z,99928.19
2022-09-15T04:48:44.084Z,99927.56
2022-09-15T04:51:14.087Z,99931.09
2022-09-15T04:53:41.972Z,99930.25
2022-09-15T04:56:14.791Z,99927.16
2022-09-15T04:58:43.893Z,99944.38
2022-09-15T05:01:16.208Z,99937.31
2022-09-15T05:03:43.706Z,99941.66
2022-09-15T05:06:12.541Z,99932.75
2022-09-15T05:08:39.590Z,99941.91
2022-09-15T05:11:12.858Z,99936.53
2022-09-15T05:13:40.479Z,99934.94
2022-09-15T05:16:15.469Z,99937.09
2022-09-15T05:18:43.494Z,99929.59
2022-09-15T05:21:11.575Z,99940.44
2022-09-15T05:23:38.342Z,99945.63
2022-09-15T05:26:12.186Z,99936.03
2022-09-15T05:28:38.984Z,99941.25
2022-09-15T05:31:10.790Z,99948.09
2022-09-15T05:33:37.790Z,99952.69
2022-09-15T05:36:05.284Z,99948.94
2022-09-15T05:38:32.595Z,99945.84
2022-09-15T05:41:07.377Z,99949.34
2022-09-15T05:43:35.379Z,99944.16
2022-09-15T05:46:03.912Z,99944.56
2022-09-15T05:48:30.862Z,99945.81
2022-09-15T05:50:58.249Z,99935.44
2022-09-15T05:53:25.640Z,99932.75
2022-09-15T05:56:06.818Z,99933.38
2022-09-15T05:58:34.281Z,99933.97
2022-09-15T06:01:13.536Z,99926.28
2022-09-15T06:03:40.731Z,99935.44
2022-09-15T06:06:07.732Z,99929.84
2022-09-15T06:08:43.894Z,99937.94
2022-09-15T06:11:13.873Z,99937.53
2022-09-15T06:13:40.449Z,99934.78
2022-09-15T06:16:12.577Z,99932.13
2022-09-15T06:18:39.975Z,99931.91
2022-09-15T06:21:18.812Z,99931.50
2022-09-15T06:23:50.518Z,99930.25
2022-09-15T06:26:19.092Z,99929.00
2022-09-15T06:28:51.142Z,99930.63
2022-09-15T06:31:18.501Z,99925.81
2022-09-15T06:33:48.164Z,99931.22
2022-09-15T06:36:16.061Z,99923.09
2022-09-15T06:38:43.632Z,99918.75
2022-09-15T06:41:11.138Z,99925.81
2022-09-15T06:43:37.943Z,99925.16
2022-09-15T06:46:10.193Z,99926.00
2022-09-15T06:48:38.210Z,99924.75
2022-09-15T06:51:06.280Z,99931.19
2022-09-15T06:53:34.844Z,99930.56
2022-09-15T06:56:15.420Z,99931.41
2022-09-15T06:58:43.103Z,99938.88
2022-09-15T07:01:12.345Z,99931.41
2022-09-15T07:03:40.961Z,99934.31
2022-09-15T07:06:09.127Z,99938.66
2022-09-15T07:08:35.672Z,99943.03
2022-09-15T07:11:02.220Z,99947.81
2022-09-15T07:13:28.798Z,99934.75
2022-09-15T07:15:58.340Z,99939.09
2022-09-15T07:18:26.377Z,99944.31
2022-09-15T07:20:54.053Z,99941.38
2022-09-15T07:23:20.646Z,99938.06
2022-09-15T07:25:47.182Z,99940.97
2022-09-15T07:28:15.616Z,99941.41
2022-09-15T07:30:43.816Z,99944.94
2022-09-15T07:33:12.660Z,99942.25
2022-09-15T07:35:43.092Z,99943.47
2022-09-15T07:38:10.511Z,99940.38
2022-09-15T07:40:38.472Z,99951.00
2022-09-15T07:43:06.226Z,99947.66
2022-09-15T07:45:33.800Z,99946.41
2022-09-15T07:48:00.574Z,99961.38
2022-09-15T07:50:27.227Z,99950.59
2022-09-15T07:52:57.113Z,99956.38
2022-09-15T07:55:24.267Z,99958.91
2022-09-15T07:58:01.073Z,99968.06
2022-09-15T08:00:28.065Z,99961.81
2022-09-15T08:02:55.126Z,99971.38
2022-09-15T08:05:23.634Z,99975.94
2022-09-15T08:07:50.592Z,99968.06
2022-09-15T08:10:17.278Z,99971.16
2022-09-15T08:12:43.868Z,99966.59
2022-09-15T08:15:10.485Z,99972.00
2022-09-15T08:17:37.071Z,99966.41
2022-09-15T08:20:04.268Z,99974.91
2022-09-15T08:22:30.860Z,99977.63
2022-09-15T08:24:57.406Z,99982.41
2022-09-15T08:27:24.017Z,99987.63
2022-09-15T08:29:51.050Z,99989.47
2022-09-15T08:32:17.719Z,99991.75
2022-09-15T08:34:44.428Z,99991.34
2022-09-15T08:37:10.994Z,99998.81
2022-09-15T08:39:37.549Z,99992.78
2022-09-15T08:42:04.836Z,99991.75
2022-09-15T08:44:48.569Z,99994.66
2022-09-15T08:47:15.081Z,99992.19
2022-09-15T08:49:51.994Z,99992.19
2022-09-15T08:52:40.644Z,99991.75
2022-09-15T08:55:15.264Z,99989.03
2022-09-15T08:57:41.845Z,99980.94
2022-09-15T09:00:14.794Z,99975.94
2022-09-15T09:02:51.316Z,99984.91
2022-09-15T09:05:40.746Z,99991.16
2022-09-15T09:08:40.748Z,99991.97
2022-09-15T09:11:31.870Z,99990.50
2022-09-15T09:14:22.402Z,99991.97
2022-09-15T09:17:13.359Z,99995.69
2022-09-15T09:20:08.751Z,99995.09
2022-09-15T09:22:39.490Z,100003.38
2022-09-15T09:25:26.130Z,99994.66
2022-09-15T09:27:54.256Z,99997.56
2022-09-15T09:30:23.185Z,99995.94
2022-09-15T09:33:04.946Z,99994.44
2022-09-15T09:35:43.399Z,99978.53
2022-09-15T09:38:11.354Z,99986.94
2022-09-15T09:40:41.149Z,99982.31
2022-09-15T09:43:08.780Z,99990.34
2022-09-15T09:45:35.584Z,99990.72
2022-09-15T09:48:23.666Z,99980.13
2022-09-15T09:50:50.807Z,99984.84
2022-09-15T09:53:34.175Z,99984.88
2022-09-15T09:56:17.331Z,99988.84
2022-09-15T09:58:44.722Z,99985.59
2022-09-15T10:01:15.211Z,99988.97
2022-09-15T10:03:43.308Z,99982.69
2022-09-15T10:06:15.250Z,99989.75
2022-09-15T10:08:59.314Z,99981.34
2022-09-15T10:11:51.932Z,99982.84
2022-09-15T10:14:36.864Z,99972.53
2022-09-15T10:17:10.713Z,99972.94
2022-09-15T10:19:49.882Z,99973.09
2022-09-15T10:22:38.675Z,99976.16
2022-09-15T10:25:20.381Z,99976.69
2022-09-15T10:28:08.477Z,99977.69
2022-09-15T10:30:36.804Z,99982.94
2022-09-15T10:33:29.056Z,99985.91
2022-09-15T10:36:02.826Z,99977.84
2022-09-15T10:38:41.071Z,99983.44
2022-09-15T10:41:30.049Z,99976.25
2022-09-15T10:44:15.023Z,99974.53
2022-09-15T10:47:03.152Z,99974.19
2022-09-15T10:49:53.984Z,99970.41
2022-09-15T10:52:26.611Z,99971.41
2022-09-15T10:55:14.969Z,99977.25
2022-09-15T10:58:03.495Z,99976.69
2022-09-15T11:01:19.387Z,99972.25
2022-09-15T11:03:54.921Z,99967.63
2022-09-15T11:06:36.587Z,99976.03
2022-09-15T11:09:42.060Z,99979.38
2022-09-15T11:12:45.516Z,99968.34
2022-09-15T11:15:52.087Z,99972.09
2022-09-15T11:18:32.306Z,99968.34
2022-09-15T11:21:21.641Z,99968.19
2022-09-15T11:24:25.822Z,99974.59
2022-09-15T11:26:57.971Z,99984.66
2022-09-15T11:29:33.877Z,99975.88
2022-09-15T11:32:09.733Z,99977.28
2022-09-15T11:34:43.731Z,99981.34
2022-09-15T11:37:17.206Z,99980.44
2022-09-15T11:40:13.074Z,99983.03
2022-09-15T11:42:46.632Z,99960.38
2022-09-15T11:45:23.214Z,99972.88
2022-09-15T11:48:06.308Z,99973.88
2022-09-15T11:50:35.928Z,99965.69
2022-09-15T11:53:35.080Z,99962.13
2022-09-15T11:56:27.687Z,99965.09
2022-09-15T11:58:57.300Z,99971.38
2022-09-15T12:01:28.641Z,99967.53
2022-09-15T12:04:03.149Z,99957.19
2022-09-15T12:06:33.958Z,99969.06
2022-09-15T12:09:06.241Z,99958.59
2022-09-15T12:11:41.552Z,99951.13
2022-09-15T12:14:15.188Z,99955.03
2022-09-15T12:16:42.446Z,99964.19
2022-09-15T12:19:40.209Z,99959.75
2022-09-15T12:22:27.047Z,99961.97
2022-09-15T12:25:20.460Z,99964.03
2022-09-15T12:28:24.104Z,99957.28
2022-09-15T12:31:23.405Z,99971.38
2022-09-15T12:34:25.051Z,99960.91
2022-09-15T12:37:06.846Z,99952.53
2022-09-15T12:39:39.884Z,99959.19
2022-09-15T12:42:08.820Z,99953.59
2022-09-15T12:44:40.554Z,99959.75
2022-09-15T12:47:24.353Z,99964.16
2022-09-15T12:49:54.012Z,99954.19
2022-09-15T12:52:23.848Z,99957.06
2022-09-15T12:54:55.675Z,99954.91
2022-09-15T12:57:31.400Z,99949.25
2022-09-15T13:00:20.154Z,99957.91
2022-09-15T13:02:48.434Z,99960.53
2022-09-15T13:05:46.087Z,99954.34
2022-09-15T13:08:34.009Z,99955.78
2022-09-15T13:11:25.635Z,99954.66
2022-09-15T13:14:15.185Z,99954.13
2022-09-15T13:16:43.751Z,99961.13
2022-09-15T13:19:15.165Z,99959.66
2022-09-15T13:21:47.918Z,99958.06
2022-09-15T13:24:30.011Z,99954.50
2022-09-15T13:26:57.949Z,99953.97
2022-09-15T13:29:26.169Z,99958.19
2022-09-15T13:32:22.694Z,99953.91
2022-09-15T13:35:20.943Z,99956.16
2022-09-15T13:38:20.100Z,99948.47
2022-09-15T13:41:13.069Z,99943.28
2022-09-15T13:43:58.277Z,99937.09
2022-09-15T13:46:24.916Z,99944.94
2022-09-15T13:49:19.013Z,99940.06
2022-09-15T13:52:14.363Z,99946.63
2022-09-15T13:55:10.141Z,99950.47
2022-09-15T14:00:32.074Z,99950.31
2022-09-15T14:03:11.402Z,99946.97
2022-09-15T14:05:38.697Z,99944.28
2022-09-15T14:08:22.747Z,99937.59
2022-09-15T14:10:58.311Z,99936.50
2022-09-15T14:13:27.537Z,99939.09
2022-09-15T14:15:59.893Z,99939.44
2022-09-15T14:18:27.399Z,99939.91
2022-09-15T14:20:59.763Z,99940.19
2022-09-15T14:23:26.597Z,99940.63
2022-09-15T14:25:53.341Z,99927.81
2022-09-15T14:28:31.299Z,99930.78
2022-09-15T14:31:00.119Z,99936.41
2022-09-15T14:33:37.905Z,99924.31
2022-09-15T14:36:28.324Z,99942.41
2022-09-15T14:39:08.716Z,99937.31
2022-09-15T14:41:36.775Z,99940.94
2022-09-15T14:47:18.893Z,99943.25
2022-09-15T14:49:45.540Z,99939.19
2022-09-15T14:52:35.840Z,99937.19
2022-09-15T14:55:06.625Z,99932.28
2022-09-15T14:57:38.581Z,99924.91
2022-09-15T15:00:13.348Z,99929.81
2022-09-15T15:02:56.300Z,99926.91
2022-09-15T15:05:30.487Z,99929.03
2022-09-15T15:07:57.813Z,99929.09
2022-09-15T15:10:32.241Z,99936.56
2022-09-15T15:13:15.218Z,99943.94
2022-09-15T15:15:42.537Z,99933.53
2022-09-15T15:18:31.797Z,99935.41
2022-09-15T15:20:59.168Z,99933.75
2022-09-15T15:23:26.391Z,99937.88
2022-09-15T15:25:53.957Z,99938.78
2022-09-15T15:28:37.179Z,99933.38
2022-09-15T15:31:25.134Z,99946.34
2022-09-15T15:33:59.310Z,99942.59
2022-09-15T15:36:30.068Z,99944.34
2022-09-15T15:38:59.323Z,99949.75
2022-09-15T15:41:31.022Z,99940.00
2022-09-15T15:44:08.113Z,99937.88
2022-09-15T15:46:52.965Z,99944.69
2022-09-15T15:49:23.714Z,99950.84
2022-09-15T15:51:50.372Z,99953.78
2022-09-15T15:54:17.006Z,99941.72
2022-09-15T15:56:43.793Z,99948.44
2022-09-15T15:59:13.218Z,99957.66
2022-09-15T16:01:40.082Z,99959.81
2022-09-15T16:04:06.761Z,99958.31
2022-09-15T16:06:34.350Z,99950.69
2022-09-15T16:09:03.045Z,99952.97
2022-09-15T16:11:29.631Z,99947.19
2022-09-15T16:13:56.459Z,99954.31
2022-09-15T16:16:26.026Z,99955.19
2022-09-15T16:18:53.684Z,99952.53
2022-09-15T16:21:37.613Z,99951.09
2022-09-15T16:24:12.409Z,99956.50
2022-09-15T16:26:39.829Z,99961.53
2022-09-15T16:29:06.818Z,99953.84
2022-09-15T16:31:34.252Z,99964.50
2022-09-15T16:34:00.862Z,99959.97
2022-09-15T16:36:27.825Z,99960.56
2022-09-15T16:38:54.574Z,99955.78
2022-09-15T16:41:23.327Z,99959.63
2022-09-15T16:43:49.996Z,99956.69
2022-09-15T16:46:17.344Z,99957.00
2022-09-15T16:48:44.359Z,99959.34
2022-09-15T16:51:26.791Z,99955.63
2022-09-15T16:53:56.235Z,99954.22
2022-09-15T16:56:22.876Z,99968.22
2022-09-15T16:58:49.592Z,99979.06
2022-09-15T17:01:18.469Z,99979.09
2022-09-15T17:03:45.310Z,99976.16
2022-09-15T17:06:17.773Z,99969.72
2022-09-15T17:08:44.667Z,99974.31
2022-09-15T17:11:17.168Z,99977.19
2022-09-15T17:13:44.643Z,99989.25
2022-09-15T17:16:13.898Z,99990.06
2022-09-15T17:18:40.961Z,99983.44
2022-09-15T17:21:10.491Z,99992.34
2022-09-15T17:23:39.626Z,99994.22
2022-09-15T17:26:13.750Z,99996.50
2022-09-15T17:28:42.194Z,99998.16
2022-09-15T17:31:15.786Z,100001.28
2022-09-15T17:33:43.064Z,99994.63
2022-09-15T17:36:10.029Z,99997.09
2022-09-15T17:38:36.745Z,99999.38
2022-09-15T17:41:03.675Z,100002.09
2022-09-15T17:43:31.995Z,100004.13
2022-09-15T17:45:58.993Z,100000.97
2022-09-15T17:48:25.723Z,100004.78
2022-09-15T17:50:52.581Z,100003.78
2022-09-15T17:53:22.568Z,99991.09
2022-09-15T17:55:50.631Z,99991.34
2022-09-15T17:58:17.558Z,99999.41
2022-09-15T18:00:45.942Z,99990.88
2022-09-15T18:03:33.266Z,99984.47
2022-09-15T18:06:03.705Z,99993.81
2022-09-15T18:08:30.854Z,99991.50
2022-09-15T18:10:57.445Z,99994.03
2022-09-15T18:13:27.337Z,99987.59
2022-09-15T18:15:54.916Z,99999.59
2022-09-15T18:18:24.785Z,100012.28
2022-09-15T18:20:53.107Z,100020.81
2022-09-15T18:23:25.244Z,100015.63
2022-09-15T18:25:52.064Z,100010.84
2022-09-15T18:28:19.478Z,100017.47
2022-09-15T18:30:48.570Z,100017.06
2022-09-15T18:33:23.564Z,100017.69
2022-09-15T18:35:53.244Z,100019.56
2022-09-15T18:38:20.320Z,100023.50
2022-09-15T18:40:49.368Z,100031.81
2022-09-15T18:43:17.134Z,100026.81
2022-09-15T18:45:43.777Z,100035.56
2022-09-15T18:48:12.896Z,100033.69
2022-09-15T18:50:40.851Z,100034.31
2022-09-15T18:53:07.978Z,100032.84
2022-09-15T18:55:34.739Z,100032.03
2022-09-15T18:58:02.590Z,100034.09
2022-09-15T19:00:29.696Z,100037.41
2022-09-15T19:03:01.769Z,100039.28
2022-09-15T19:05:29.960Z,100036.34
2022-09-15T19:07:57.321Z,100048.41
2022-09-15T19:10:26.711Z,100045.28
2022-09-15T19:12:53.787Z,100049.66
2022-09-15T19:15:23.669Z,100045.28
2022-09-15T19:17:50.598Z,100050.25
2022-09-15T19:20:17.502Z,100049.00
2022-09-15T19:22:44.083Z,100053.56
2022-09-15T19:25:12.117Z,100055.63
2022-09-15T19:27:39.582Z,100060.00
2022-09-15T19:30:09.944Z,100060.19
2022-09-15T19:32:37.718Z,100068.47
2022-09-15T19:35:04.933Z,100060.59
2022-09-15T19:37:31.505Z,100054.13
2022-09-15T19:39:58.151Z,100057.25
2022-09-15T19:42:24.746Z,100068.03
2022-09-15T19:44:51.481Z,100062.84
2022-09-15T19:47:18.081Z,100064.72
2022-09-15T19:49:44.682Z,100062.66
2022-09-15T19:52:12.792Z,100068.66
2022-09-15T19:54:39.419Z,100065.97
2022-09-15T19:57:06.071Z,100058.09
2022-09-15T19:59:32.678Z,100067.78
2022-09-15T20:02:00.700Z,100068.63
2022-09-15T20:04:28.192Z,100065.09
2022-09-15T20:06:54.818Z,100063.84
2022-09-15T20:09:21.392Z,100071.94
2022-09-15T20:11:47.979Z,100070.09
2022-09-15T20:14:15.005Z,100064.91
2022-09-15T20:16:41.867Z,100067.16
2022-09-15T20:19:08.790Z,100069.88
2022-09-15T20:21:49.820Z,100065.94
2022-09-15T20:24:17.861Z,100063.84
2022-09-15T20:26:44.440Z,100064.28
2022-09-15T20:29:11.776Z,100058.50
2022-09-15T20:31:38.824Z,100060.78
2022-09-15T20:34:05.715Z,100056.44
2022-09-15T20:36:35.489Z,100062.25
2022-09-15T20:39:04.102Z,100065.13
2022-09-15T20:41:34.381Z,100066.13
2022-09-15T20:44:01.448Z,100067.78
2022-09-15T20:46:31.450Z,100063.63
2022-09-15T20:48:58.016Z,100071.13
2022-09-15T20:51:27.888Z,100075.69
2022-09-15T20:53:57.029Z,100074.66
2022-09-15T20:56:26.712Z,100070.50
2022-09-15T20:58:55.207Z,100074.22
2022-09-15T21:01:27.768Z,100080.03
2022-09-15T21:03:57.610Z,100082.94
2022-09-15T21:06:26.973Z,100085.81
2022-09-15T21:08:55.616Z,100087.94
2022-09-15T21:11:23.969Z,100084.97
2022-09-15T21:13:50.907Z,100087.69
2022-09-15T21:16:20.563Z,100084.16
2022-09-15T21:18:48.176Z,100084.56
2022-09-15T21:21:17.993Z,100079.16
2022-09-15T21:23:53.626Z,100082.91
2022-09-15T21:26:25.974Z,100082.91
2022-09-15T21:28:54.214Z,100080.59
2022-09-15T21:31:30.033Z,100090.78
2022-09-15T21:33:58.026Z,100085.59
2022-09-15T21:36:33.585Z,100099.13
2022-09-15T21:39:00.339Z,100093.53
2022-09-15T21:41:29.982Z,100093.28
2022-09-15T21:43:58.361Z,100093.06
2022-09-15T21:46:31.928Z,100087.41
2022-09-15T21:48:59.894Z,100091.56
2022-09-15T21:51:29.409Z,100090.09
2022-09-15T21:53:58.378Z,100089.06
2022-09-15T21:56:26.036Z,100094.25
2022-09-15T21:58:52.592Z,100089.47
2022-09-15T22:01:21.986Z,100101.50
2022-09-15T22:03:49.847Z,100098.63
2022-09-15T22:06:16.867Z,100098.22
2022-09-15T22:08:44.753Z,100098.63
2022-09-15T22:11:11.639Z,100108.97
2022-09-15T22:13:41.213Z,100112.72
2022-09-15T22:16:11.401Z,100118.09
2022-09-15T22:18:40.041Z,100112.25
2022-09-15T22:21:15.708Z,100106.69
2022-09-15T22:23:43.742Z,100122.22
2022-09-15T22:26:15.787Z,100113.53
2022-09-15T22:28:42.760Z,100116.25
2022-09-15T22:31:11.070Z,100109.38
2022-09-15T22:33:40.958Z,100111.63
2022-09-15T22:36:12.183Z,100106.03
2022-09-15T22:38:39.235Z,100118.09
2022-09-15T22:41:09.042Z,100108.78
2022-09-15T22:43:36.498Z,100122.03
2022-09-15T22:46:03.274Z,100119.50
2022-09-15T22:48:30.188Z,100122.22
2022-09-15T22:50:57.028Z,100123.69
2022-09-15T22:53:23.871Z,100118.31
2022-09-15T22:55:51.290Z,100128.00
2022-09-15T22:58:17.965Z,100132.78
2022-09-15T23:00:44.658Z,100124.47
2022-09-15T23:03:11.708Z,100122.63
2022-09-15T23:05:38.418Z,100125.56
2022-09-15T23:08:05.236Z,100123.50
2022-09-15T23:10:32.773Z,100122.28
2022-09-15T23:12:59.873Z,100127.47
2022-09-15T23:15:26.703Z,100123.94
2022-09-15T23:17:53.298Z,100124.97
2022-09-15T23:20:19.891Z,100122.66
2022-09-15T23:22:46.471Z,100120.41
2022-09-15T23:25:13.223Z,100128.91
2022-09-15T23:27:39.786Z,100121.50
2022-09-15T23:30:06.767Z,100119.78
2022-09-15T23:32:33.411Z,100115.44
2022-09-15T23:34:59.999Z,100116.09
2022-09-15T23:37:26.625Z,100118.97
2022-09-15T23:39:53.222Z,100128.50
2022-09-15T23:42:19.818Z,100131.81
2022-09-15T23:44:46.401Z,100122.50
2022-09-15T23:47:12.989Z,100113.66
2022-09-15T23:49:39.800Z,100119.00
2022-09-15T23:52:06.374Z,100127.25
2022-09-15T23:54:32.991Z,100127.47
2022-09-15T23:56:59.593Z,100121.44
2022-09-15T23:59:26.144Z,100126.19
